sensor_id;sensor_type;location;lat;lon;timestamp;pressure;altitude;pressure_sealevel;temperature;humidity
40788;BME280;26497;52.494;7.546;2023-09-30T00:01:10;101786.56;;;15.12;74.83
40788;BME280;26497;52.494;7.546;2023-09-30T00:03:37;101779.47;;;15.11;75.20
40788;BME280;26497;52.494;7.546;2023-09-30T00:06:04;101795.41;;;15.13;75.02
40788;BME280;26497;52.494;7.546;2023-09-30T00:08:31;101790.13;;;15.07;75.61
40788;BME280;26497;52.494;7.546;2023-09-30T00:10:59;101782.16;;;15.10;75.64
40788;BME280;26497;52.494;7.546;2023-09-30T00:13:27;101796.28;;;15.07;75.30
40788;BME280;26497;52.494;7.546;2023-09-30T00:15:55;101806.06;;;15.10;75.74
40788;BME280;26497;52.494;7.546;2023-09-30T00:18:22;101798.97;;;15.15;74.98
40788;BME280;26497;52.494;7.546;2023-09-30T00:20:49;101796.31;;;15.02;75.28
40788;BME280;26497;52.494;7.546;2023-09-30T00:23:16;101790.09;;;15.02;75.40
40788;BME280;26497;52.494;7.546;2023-09-30T00:25:44;101791.00;;;14.98;75.37
40788;BME280;26497;52.494;7.546;2023-09-30T00:28:12;101794.53;;;14.97;75.67
40788;BME280;26497;52.494;7.546;2023-09-30T00:30:41;101801.63;;;15.09;75.36
40788;BME280;26497;52.494;7.546;2023-09-30T00:33:11;101807.81;;;15.14;75.02
40788;BME280;26497;52.494;7.546;2023-09-30T00:35:38;101811.38;;;15.10;74.92
40788;BME280;26497;52.494;7.546;2023-09-30T00:38:06;101797.19;;;14.97;75.31
40788;BME280;26497;52.494;7.546;2023-09-30T00:40:34;101792.78;;;14.94;75.25
40788;BME280;26497;52.494;7.546;2023-09-30T00:43:05;101798.97;;;14.93;75.50
40788;BME280;26497;52.494;7.546;2023-09-30T00:45:32;101807.84;;;14.95;75.34
40788;BME280;26497;52.494;7.546;2023-09-30T00:48:01;101798.97;;;15.02;75.05
40788;BME280;26497;52.494;7.546;2023-09-30T00:50:29;101798.97;;;14.99;75.25
40788;BME280;26497;52.494;7.546;2023-09-30T00:52:56;101806.06;;;15.10;74.94
40788;BME280;26497;52.494;7.546;2023-09-30T00:55:23;101790.13;;;15.03;75.53
40788;BME280;26497;52.494;7.546;2023-09-30T00:57:50;101786.56;;;15.04;76.13
40788;BME280;26497;52.494;7.546;2023-09-30T01:00:19;101784.78;;;15.11;75.57
40788;BME280;26497;52.494;7.546;2023-09-30T01:02:47;101782.13;;;15.11;76.01
40788;BME280;26497;52.494;7.546;2023-09-30T01:05:15;101781.25;;;15.11;75.88
40788;BME280;26497;52.494;7.546;2023-09-30T01:07:43;101778.59;;;15.09;75.85
40788;BME280;26497;52.494;7.546;2023-09-30T01:10:10;101785.66;;;15.13;75.84
40788;BME280;26497;52.494;7.546;2023-09-30T01:12:37;101787.41;;;15.25;75.61
40788;BME280;26497;52.494;7.546;2023-09-30T01:15:05;101791.84;;;15.22;75.97
40788;BME280;26497;52.494;7.546;2023-09-30T01:17:32;101794.53;;;15.17;76.54
40788;BME280;26497;52.494;7.546;2023-09-30T01:19:59;101800.72;;;15.22;76.73
40788;BME280;26497;52.494;7.546;2023-09-30T01:22:28;101798.03;;;15.27;76.30
40788;BME280;26497;52.494;7.546;2023-09-30T01:24:55;101791.81;;;15.29;75.83
40788;BME280;26497;52.494;7.546;2023-09-30T01:27:23;101797.16;;;15.34;75.75
40788;BME280;26497;52.494;7.546;2023-09-30T01:29:51;101791.81;;;15.36;75.90
40788;BME280;26497;52.494;7.546;2023-09-30T01:32:18;101808.66;;;15.31;76.46
40788;BME280;26497;52.494;7.546;2023-09-30T01:34:45;101811.31;;;15.28;76.62
40788;BME280;26497;52.494;7.546;2023-09-30T01:37:12;101804.22;;;15.33;76.21
40788;BME280;26497;52.494;7.546;2023-09-30T01:39:41;101813.97;;;15.33;76.22
40788;BME280;26497;52.494;7.546;2023-09-30T01:42:10;101812.22;;;15.35;76.54
40788;BME280;26497;52.494;7.546;2023-09-30T01:44:37;101810.41;;;15.43;75.91
40788;BME280;26497;52.494;7.546;2023-09-30T01:47:04;101802.44;;;15.39;76.02
40788;BME280;26497;52.494;7.546;2023-09-30T01:49:31;101810.41;;;15.42;76.17
40788;BME280;26497;52.494;7.546;2023-09-30T01:51:58;101815.72;;;15.43;75.80
40788;BME280;26497;52.494;7.546;2023-09-30T01:54:25;101819.25;;;15.41;75.75
40788;BME280;26497;52.494;7.546;2023-09-30T01:56:54;101815.75;;;15.40;75.69
40788;BME280;26497;52.494;7.546;2023-09-30T01:59:23;101821.94;;;15.36;75.88
40788;BME280;26497;52.494;7.546;2023-09-30T02:01:50;101824.59;;;15.33;76.25
40788;BME280;26497;52.494;7.546;2023-09-30T02:04:17;101821.94;;;15.38;76.09
40788;BME280;26497;52.494;7.546;2023-09-30T02:06:44;101823.69;;;15.39;76.02
40788;BME280;26497;52.494;7.546;2023-09-30T02:09:12;101828.16;;;15.32;76.56
40788;BME280;26497;52.494;7.546;2023-09-30T02:11:39;101828.16;;;15.32;76.92
40788;BME280;26497;52.494;7.546;2023-09-30T02:14:08;101817.50;;;15.37;76.96
40788;BME280;26497;52.494;7.546;2023-09-30T02:16:38;101807.75;;;15.29;77.45
40788;BME280;26497;52.494;7.546;2023-09-30T02:19:05;101813.06;;;15.39;76.79
40788;BME280;26497;52.494;7.546;2023-09-30T02:21:32;101811.28;;;15.41;76.62
40788;BME280;26497;52.494;7.546;2023-09-30T02:23:59;101822.81;;;15.33;76.47
40788;BME280;26497;52.494;7.546;2023-09-30T02:26:26;101818.41;;;15.25;76.50
40788;BME280;26497;52.494;7.546;2023-09-30T02:28:55;101826.41;;;15.23;76.32
40788;BME280;26497;52.494;7.546;2023-09-30T02:31:23;101821.97;;;15.17;76.30
40788;BME280;26497;52.494;7.546;2023-09-30T02:33:51;101829.94;;;15.14;76.28
40788;BME280;26497;52.494;7.546;2023-09-30T02:36:18;101828.16;;;15.16;76.41
40788;BME280;26497;52.494;7.546;2023-09-30T02:38:45;101842.38;;;15.14;75.92
40788;BME280;26497;52.494;7.546;2023-09-30T02:41:12;101838.81;;;15.10;76.19
40788;BME280;26497;52.494;7.546;2023-09-30T02:43:39;101834.38;;;15.08;75.79
40788;BME280;26497;52.494;7.546;2023-09-30T02:46:06;101823.75;;;15.03;75.72
40788;BME280;26497;52.494;7.546;2023-09-30T02:48:35;101821.09;;;15.03;75.70
40788;BME280;26497;52.494;7.546;2023-09-30T02:51:02;101824.66;;;15.00;75.86
40788;BME280;26497;52.494;7.546;2023-09-30T02:53:30;101821.13;;;14.98;75.65
40788;BME280;26497;52.494;7.546;2023-09-30T02:55:57;101821.13;;;14.95;75.66
40788;BME280;26497;52.494;7.546;2023-09-30T02:58:25;101814.91;;;14.90;75.68
40788;BME280;26497;52.494;7.546;2023-09-30T03:00:53;101806.94;;;14.85;76.19
40788;BME280;26497;52.494;7.546;2023-09-30T03:03:21;101822.88;;;14.85;76.48
40788;BME280;26497;52.494;7.546;2023-09-30T03:05:52;101818.44;;;14.86;76.22
40788;BME280;26497;52.494;7.546;2023-09-30T03:08:20;101822.88;;;14.90;76.56
40788;BME280;26497;52.494;7.546;2023-09-30T03:10:48;101821.97;;;14.93;76.32
40788;BME280;26497;52.494;7.546;2023-09-30T03:13:15;101830.84;;;14.92;76.45
40788;BME280;26497;52.494;7.546;2023-09-30T03:15:44;101823.78;;;14.89;76.73
40788;BME280;26497;52.494;7.546;2023-09-30T03:18:11;101825.53;;;14.93;76.95
40788;BME280;26497;52.494;7.546;2023-09-30T03:20:39;101826.44;;;14.92;77.37
40788;BME280;26497;52.494;7.546;2023-09-30T03:23:10;101820.22;;;14.98;77.24
40788;BME280;26497;52.494;7.546;2023-09-30T03:25:39;101824.66;;;15.00;77.19
40788;BME280;26497;52.494;7.546;2023-09-30T03:28:07;101814.91;;;15.06;77.06
40788;BME280;26497;52.494;7.546;2023-09-30T03:30:35;101821.97;;;15.08;77.24
40788;BME280;26497;52.494;7.546;2023-09-30T03:33:02;101824.63;;;15.11;76.84
40788;BME280;26497;52.494;7.546;2023-09-30T03:35:30;101822.00;;;15.10;76.89
40788;BME280;26497;52.494;7.546;2023-09-30T03:37:58;101822.00;;;15.07;77.03
40788;BME280;26497;52.494;7.546;2023-09-30T03:40:27;101829.06;;;15.18;76.60
40788;BME280;26497;52.494;7.546;2023-09-30T03:42:59;101824.63;;;15.11;76.76
40788;BME280;26497;52.494;7.546;2023-09-30T03:45:26;101822.88;;;15.09;76.52
40788;BME280;26497;52.494;7.546;2023-09-30T03:47:53;101829.09;;;15.01;76.30
40788;BME280;26497;52.494;7.546;2023-09-30T03:50:20;101831.72;;;15.00;76.00
40788;BME280;26497;52.494;7.546;2023-09-30T03:52:49;101826.41;;;14.97;75.77
40788;BME280;26497;52.494;7.546;2023-09-30T03:55:16;101826.41;;;14.91;75.88
40788;BME280;26497;52.494;7.546;2023-09-30T03:57:47;101824.63;;;14.83;75.95
40788;BME280;26497;52.494;7.546;2023-09-30T04:00:16;101822.00;;;14.88;76.21
40788;BME280;26497;52.494;7.546;2023-09-30T04:02:44;101818.44;;;14.84;76.20
40788;BME280;26497;52.494;7.546;2023-09-30T04:05:14;101826.41;;;14.84;76.01
40788;BME280;26497;52.494;7.546;2023-09-30T04:07:43;101821.09;;;14.83;75.91
40788;BME280;26497;52.494;7.546;2023-09-30T04:10:10;101812.25;;;14.85;75.50
40788;BME280;26497;52.494;7.546;2023-09-30T04:12:37;101809.59;;;14.82;75.52
40788;BME280;26497;52.494;7.546;2023-09-30T04:15:07;101815.78;;;14.78;75.88
40788;BME280;26497;52.494;7.546;2023-09-30T04:17:37;101812.25;;;14.78;75.15
40788;BME280;26497;52.494;7.546;2023-09-30T04:20:06;101820.22;;;14.74;75.18
40788;BME280;26497;52.494;7.546;2023-09-30T04:22:35;101821.09;;;14.77;75.14
40788;BME280;26497;52.494;7.546;2023-09-30T04:25:03;101819.34;;;14.85;74.77
40788;BME280;26497;52.494;7.546;2023-09-30T04:27:34;101812.25;;;14.78;74.79
40788;BME280;26497;52.494;7.546;2023-09-30T04:30:01;101819.28;;;14.63;74.65
40788;BME280;26497;52.494;7.546;2023-09-30T04:32:35;101819.28;;;14.62;74.29
40788;BME280;26497;52.494;7.546;2023-09-30T04:35:03;101821.03;;;14.47;74.45
40788;BME280;26497;52.494;7.546;2023-09-30T04:37:31;101829.88;;;14.41;75.07
40788;BME280;26497;52.494;7.546;2023-09-30T04:39:58;101829.84;;;14.38;74.91
40788;BME280;26497;52.494;7.546;2023-09-30T04:42:25;101828.97;;;14.35;75.07
40788;BME280;26497;52.494;7.546;2023-09-30T04:44:52;101836.03;;;14.34;74.99
40788;BME280;26497;52.494;7.546;2023-09-30T04:47:20;101827.22;;;14.34;75.27
40788;BME280;26497;52.494;7.546;2023-09-30T04:49:48;101830.72;;;14.34;75.92
40788;BME280;26497;52.494;7.546;2023-09-30T04:52:17;101833.41;;;14.43;76.35
40788;BME280;26497;52.494;7.546;2023-09-30T04:54:44;101838.72;;;14.50;77.06
40788;BME280;26497;52.494;7.546;2023-09-30T04:57:11;101833.44;;;14.56;77.11
40788;BME280;26497;52.494;7.546;2023-09-30T04:59:38;101834.34;;;14.67;77.28
40788;BME280;26497;52.494;7.546;2023-09-30T05:02:05;101839.69;;;14.78;76.87
40788;BME280;26497;52.494;7.546;2023-09-30T05:04:33;101840.56;;;14.83;76.78
40788;BME280;26497;52.494;7.546;2023-09-30T05:07:01;101834.38;;;14.89;76.52
40788;BME280;26497;52.494;7.546;2023-09-30T05:09:29;101852.09;;;14.90;76.04
40788;BME280;26497;52.494;7.546;2023-09-30T05:11:57;101853.88;;;14.88;76.35
40788;BME280;26497;52.494;7.546;2023-09-30T05:14:24;101851.22;;;14.88;75.95
40788;BME280;26497;52.494;7.546;2023-09-30T05:16:53;101855.63;;;14.91;75.95
40788;BME280;26497;52.494;7.546;2023-09-30T05:19:22;101852.97;;;14.89;75.85
40788;BME280;26497;52.494;7.546;2023-09-30T05:21:49;101860.03;;;14.85;75.83
40788;BME280;26497;52.494;7.546;2023-09-30T05:24:18;101858.28;;;14.83;76.06
40788;BME280;26497;52.494;7.546;2023-09-30T05:26:46;101854.75;;;14.81;76.40
40788;BME280;26497;52.494;7.546;2023-09-30T05:29:14;101859.16;;;14.82;76.42
40788;BME280;26497;52.494;7.546;2023-09-30T05:31:42;101868.91;;;14.84;76.35
40788;BME280;26497;52.494;7.546;2023-09-30T05:34:10;101861.81;;;14.86;75.83
40788;BME280;26497;52.494;7.546;2023-09-30T05:36:38;101875.09;;;14.86;75.38
40788;BME280;26497;52.494;7.546;2023-09-30T05:39:05;101873.31;;;14.82;75.40
40788;BME280;26497;52.494;7.546;2023-09-30T05:41:38;101890.16;;;14.91;75.46
40788;BME280;26497;52.494;7.546;2023-09-30T05:44:05;101888.38;;;14.86;75.97
40788;BME280;26497;52.494;7.546;2023-09-30T05:46:33;101879.53;;;14.87;75.72
40788;BME280;26497;52.494;7.546;2023-09-30T05:49:00;101883.97;;;14.87;75.75
40788;BME280;26497;52.494;7.546;2023-09-30T05:51:32;101885.72;;;14.83;75.78
40788;BME280;26497;52.494;7.546;2023-09-30T05:53:59;101885.72;;;14.82;75.83
40788;BME280;26497;52.494;7.546;2023-09-30T05:56:27;101896.34;;;14.86;75.78
40788;BME280;26497;52.494;7.546;2023-09-30T05:58:55;101876.88;;;14.84;75.88
40788;BME280;26497;52.494;7.546;2023-09-30T06:01:23;101893.69;;;14.86;76.03
40788;BME280;26497;52.494;7.546;2023-09-30T06:03:50;101883.06;;;14.83;76.78
40788;BME280;26497;52.494;7.546;2023-09-30T06:06:17;101876.88;;;14.83;77.56
40788;BME280;26497;52.494;7.546;2023-09-30T06:08:45;101889.25;;;14.88;77.78
40788;BME280;26497;52.494;7.546;2023-09-30T06:11:17;101889.28;;;14.96;78.25
40788;BME280;26497;52.494;7.546;2023-09-30T06:13:45;101891.06;;;15.17;78.08
40788;BME280;26497;52.494;7.546;2023-09-30T06:16:14;101888.38;;;15.28;78.20
40788;BME280;26497;52.494;7.546;2023-09-30T06:18:42;101890.16;;;15.40;79.02
40788;BME280;26497;52.494;7.546;2023-09-30T06:21:11;101885.66;;;15.72;80.67
40788;BME280;26497;52.494;7.546;2023-09-30T06:23:38;101884.63;;;16.26;83.30
40788;BME280;26497;52.494;7.546;2023-09-30T06:26:06;101890.53;;;16.77;83.89
40788;BME280;26497;52.494;7.546;2023-09-30T06:28:33;101879.50;;;17.29;84.75
40788;BME280;26497;52.494;7.546;2023-09-30T06:31:06;101888.75;;;17.84;84.24
40788;BME280;26497;52.494;7.546;2023-09-30T06:33:36;101891.25;;;18.00;83.78
40788;BME280;26497;52.494;7.546;2023-09-30T06:36:08;101896.50;;;18.73;84.56
40788;BME280;26497;52.494;7.546;2023-09-30T06:38:36;101895.72;;;19.24;85.12
40788;BME280;26497;52.494;7.546;2023-09-30T06:41:04;101890.34;;;19.74;84.24
40788;BME280;26497;52.494;7.546;2023-09-30T06:43:31;101897.56;;;20.18;82.46
40788;BME280;26497;52.494;7.546;2023-09-30T06:45:59;101894.16;;;20.52;80.89
40788;BME280;26497;52.494;7.546;2023-09-30T06:48:26;101894.53;;;20.74;79.25
40788;BME280;26497;52.494;7.546;2023-09-30T06:50:55;101903.94;;;20.92;78.31
40788;BME280;26497;52.494;7.546;2023-09-30T06:53:22;101897.84;;;21.22;75.29
40788;BME280;26497;52.494;7.546;2023-09-30T06:55:49;101900.41;;;21.63;75.97
40788;BME280;26497;52.494;7.546;2023-09-30T06:58:17;101909.06;;;21.74;73.32
40788;BME280;26497;52.494;7.546;2023-09-30T07:00:47;101906.13;;;21.84;73.09
40788;BME280;26497;52.494;7.546;2023-09-30T07:03:15;101913.81;;;22.28;72.95
40788;BME280;26497;52.494;7.546;2023-09-30T07:05:42;101917.66;;;22.49;68.66
40788;BME280;26497;52.494;7.546;2023-09-30T07:08:11;101919.25;;;22.24;68.85
40788;BME280;26497;52.494;7.546;2023-09-30T07:10:38;101907.75;;;22.51;69.66
40788;BME280;26497;52.494;7.546;2023-09-30T07:13:05;101907.91;;;22.46;67.05
40788;BME280;26497;52.494;7.546;2023-09-30T07:15:33;101918.47;;;22.21;66.08
40788;BME280;26497;52.494;7.546;2023-09-30T07:18:00;101914.69;;;21.97;66.36
40788;BME280;26497;52.494;7.546;2023-09-30T07:20:28;101919.25;;;21.60;67.14
40788;BME280;26497;52.494;7.546;2023-09-30T07:22:58;101924.75;;;20.81;68.58
40788;BME280;26497;52.494;7.546;2023-09-30T07:25:27;101925.00;;;20.29;71.25
40788;BME280;26497;52.494;7.546;2023-09-30T07:27:54;101935.78;;;19.79;71.81
40788;BME280;26497;52.494;7.546;2023-09-30T07:30:21;101943.50;;;19.46;73.88
40788;BME280;26497;52.494;7.546;2023-09-30T07:32:49;101935.94;;;19.18;74.63
40788;BME280;26497;52.494;7.546;2023-09-30T07:35:16;101939.81;;;19.00;76.18
40788;BME280;26497;52.494;7.546;2023-09-30T07:37:44;101934.66;;;18.84;76.72
40788;BME280;26497;52.494;7.546;2023-09-30T07:40:12;101938.19;;;18.86;77.56
40788;BME280;26497;52.494;7.546;2023-09-30T07:42:41;101946.13;;;18.93;78.36
40788;BME280;26497;52.494;7.546;2023-09-30T07:45:09;101949.78;;;18.85;77.80
40788;BME280;26497;52.494;7.546;2023-09-30T07:47:37;101951.47;;;18.91;77.48
40788;BME280;26497;52.494;7.546;2023-09-30T07:50:05;101955.13;;;18.85;77.82
40788;BME280;26497;52.494;7.546;2023-09-30T07:52:35;101955.56;;;19.17;80.50
40788;BME280;26497;52.494;7.546;2023-09-30T07:55:02;101956.94;;;19.41;78.57
40788;BME280;26497;52.494;7.546;2023-09-30T07:57:30;101965.72;;;19.50;77.00
40788;BME280;26497;52.494;7.546;2023-09-30T08:00:00;101967.25;;;19.65;78.01
40788;BME280;26497;52.494;7.546;2023-09-30T08:02:28;101961.59;;;19.82;77.38
40788;BME280;26497;52.494;7.546;2023-09-30T08:04:59;101966.03;;;19.83;76.26
40788;BME280;26497;52.494;7.546;2023-09-30T08:07:26;101963.59;;;19.70;76.62
40788;BME280;26497;52.494;7.546;2023-09-30T08:09:53;101968.88;;;19.73;77.17
40788;BME280;26497;52.494;7.546;2023-09-30T08:12:20;101966.34;;;20.16;76.19
40788;BME280;26497;52.494;7.546;2023-09-30T08:14:48;101966.56;;;20.47;75.35
40788;BME280;26497;52.494;7.546;2023-09-30T08:17:18;101962.69;;;21.40;76.17
40788;BME280;26497;52.494;7.546;2023-09-30T08:19:47;101965.28;;;22.45;68.56
40788;BME280;26497;52.494;7.546;2023-09-30T08:22:14;101974.50;;;23.23;68.99
40788;BME280;26497;52.494;7.546;2023-09-30T08:24:41;101979.41;;;24.17;65.25
40788;BME280;26497;52.494;7.546;2023-09-30T08:27:11;101973.72;;;24.24;59.34
40788;BME280;26497;52.494;7.546;2023-09-30T08:29:39;101971.94;;;24.95;62.32
40788;BME280;26497;52.494;7.546;2023-09-30T08:32:06;101978.13;;;25.64;54.13
40788;BME280;26497;52.494;7.546;2023-09-30T08:34:35;101975.22;;;25.89;54.57
40788;BME280;26497;52.494;7.546;2023-09-30T08:37:02;101980.13;;;26.20;53.04
40788;BME280;26497;52.494;7.546;2023-09-30T08:39:29;101986.44;;;26.21;52.67
40788;BME280;26497;52.494;7.546;2023-09-30T08:41:56;101979.78;;;26.08;50.60
40788;BME280;26497;52.494;7.546;2023-09-30T08:44:24;101975.09;;;26.32;51.40
40788;BME280;26497;52.494;7.546;2023-09-30T08:46:52;101987.28;;;26.22;48.47
40788;BME280;26497;52.494;7.546;2023-09-30T08:49:21;101984.47;;;26.63;48.04
40788;BME280;26497;52.494;7.546;2023-09-30T08:51:51;101980.53;;;26.70;47.33
40788;BME280;26497;52.494;7.546;2023-09-30T08:54:18;101968.25;;;26.82;46.51
40788;BME280;26497;52.494;7.546;2023-09-30T08:56:48;101967.00;;;27.26;47.29
40788;BME280;26497;52.494;7.546;2023-09-30T08:59:17;101967.19;;;27.76;44.42
40788;BME280;26497;52.494;7.546;2023-09-30T09:01:44;101964.00;;;27.85;44.09
40788;BME280;26497;52.494;7.546;2023-09-30T09:04:12;101975.91;;;28.34;43.15
40788;BME280;26497;52.494;7.546;2023-09-30T09:06:38;101974.31;;;28.12;42.34
40788;BME280;26497;52.494;7.546;2023-09-30T09:09:16;101972.91;;;28.38;42.50
40788;BME280;26497;52.494;7.546;2023-09-30T09:11:48;101953.53;;;28.78;42.17
40788;BME280;26497;52.494;7.546;2023-09-30T09:14:15;101967.66;;;29.48;40.06
40788;BME280;26497;52.494;7.546;2023-09-30T09:16:53;101953.78;;;29.06;39.67
40788;BME280;26497;52.494;7.546;2023-09-30T09:19:25;101960.16;;;28.73;41.35
40788;BME280;26497;52.494;7.546;2023-09-30T09:21:58;101959.59;;;29.30;41.23
40788;BME280;26497;52.494;7.546;2023-09-30T09:24:32;101959.69;;;30.04;39.45
40788;BME280;26497;52.494;7.546;2023-09-30T09:27:08;101954.72;;;30.96;38.00
40788;BME280;26497;52.494;7.546;2023-09-30T09:29:38;101950.50;;;31.05;36.61
40788;BME280;26497;52.494;7.546;2023-09-30T09:32:10;101948.69;;;30.49;36.34
40788;BME280;26497;52.494;7.546;2023-09-30T09:34:38;101951.38;;;29.91;36.85
40788;BME280;26497;52.494;7.546;2023-09-30T09:37:16;101947.94;;;30.33;37.62
40788;BME280;26497;52.494;7.546;2023-09-30T09:39:55;101949.66;;;30.90;35.44
40788;BME280;26497;52.494;7.546;2023-09-30T09:42:27;101949.84;;;30.45;36.88
40788;BME280;26497;52.494;7.546;2023-09-30T09:45:03;101955.50;;;29.98;36.72
40788;BME280;26497;52.494;7.546;2023-09-30T09:47:33;101946.78;;;30.08;37.06
40788;BME280;26497;52.494;7.546;2023-09-30T09:50:03;101959.31;;;29.51;37.74
40788;BME280;26497;52.494;7.546;2023-09-30T09:52:32;101969.28;;;28.88;38.99
40788;BME280;26497;52.494;7.546;2023-09-30T09:55:02;101971.31;;;28.84;39.17
40788;BME280;26497;52.494;7.546;2023-09-30T09:57:35;101962.38;;;28.98;38.99
40788;BME280;26497;52.494;7.546;2023-09-30T10:00:06;101965.44;;;29.08;38.79
40788;BME280;26497;52.494;7.546;2023-09-30T10:02:40;101967.47;;;28.88;39.75
40788;BME280;26497;52.494;7.546;2023-09-30T10:05:08;101968.47;;;29.18;38.49
40788;BME280;26497;52.494;7.546;2023-09-30T10:07:42;101973.78;;;29.19;37.98
40788;BME280;26497;52.494;7.546;2023-09-30T10:10:18;101980.16;;;29.04;38.75
40788;BME280;26497;52.494;7.546;2023-09-30T10:12:47;101976.16;;;29.41;39.80
40788;BME280;26497;52.494;7.546;2023-09-30T10:15:39;101966.19;;;30.59;37.12
40788;BME280;26497;52.494;7.546;2023-09-30T10:18:10;101954.63;;;29.98;36.38
40788;BME280;26497;52.494;7.546;2023-09-30T10:20:41;101954.84;;;29.50;36.89
40788;BME280;26497;52.494;7.546;2023-09-30T10:23:24;101956.06;;;29.89;36.55
40788;BME280;26497;52.494;7.546;2023-09-30T10:26:13;101963.63;;;30.56;37.77
40788;BME280;26497;52.494;7.546;2023-09-30T10:28:44;101961.09;;;30.82;35.43
40788;BME280;26497;52.494;7.546;2023-09-30T10:31:14;101962.50;;;30.60;37.34
40788;BME280;26497;52.494;7.546;2023-09-30T10:34:20;101964.41;;;29.86;35.52
40788;BME280;26497;52.494;7.546;2023-09-30T10:36:50;101967.88;;;30.19;37.18
40788;BME280;26497;52.494;7.546;2023-09-30T10:39:57;101977.84;;;31.03;35.42
40788;BME280;26497;52.494;7.546;2023-09-30T10:42:47;101975.38;;;31.54;33.82
40788;BME280;26497;52.494;7.546;2023-09-30T10:45:45;101983.53;;;30.57;33.82
40788;BME280;26497;52.494;7.546;2023-09-30T10:48:37;101978.94;;;30.15;35.35
40788;BME280;26497;52.494;7.546;2023-09-30T10:51:15;101991.97;;;30.25;34.53
40788;BME280;26497;52.494;7.546;2023-09-30T10:53:51;101993.03;;;29.77;35.17
40788;BME280;26497;52.494;7.546;2023-09-30T10:56:19;101991.31;;;29.46;36.00
40788;BME280;26497;52.494;7.546;2023-09-30T10:58:49;101990.41;;;29.45;36.08
40788;BME280;26497;52.494;7.546;2023-09-30T11:01:19;101981.03;;;29.96;34.62
40788;BME280;26497;52.494;7.546;2023-09-30T11:03:48;101989.66;;;29.74;34.77
40788;BME280;26497;52.494;7.546;2023-09-30T11:06:19;101980.63;;;29.87;35.01
40788;BME280;26497;52.494;7.546;2023-09-30T11:08:54;101982.94;;;30.81;34.53
40788;BME280;26497;52.494;7.546;2023-09-30T11:11:36;101982.41;;;31.03;31.47
40788;BME280;26497;52.494;7.546;2023-09-30T11:14:20;101977.16;;;31.68;33.37
40788;BME280;26497;52.494;7.546;2023-09-30T11:16:48;101984.28;;;32.22;30.24
40788;BME280;26497;52.494;7.546;2023-09-30T11:19:15;101973.78;;;32.29;29.85
40788;BME280;26497;52.494;7.546;2023-09-30T11:21:43;101973.28;;;31.44;31.29
40788;BME280;26497;52.494;7.546;2023-09-30T11:24:11;101968.13;;;30.99;31.46
40788;BME280;26497;52.494;7.546;2023-09-30T11:26:39;101970.34;;;31.07;32.10
40788;BME280;26497;52.494;7.546;2023-09-30T11:29:12;101969.47;;;30.79;32.13
40788;BME280;26497;52.494;7.546;2023-09-30T11:31:45;101962.09;;;30.38;32.39
40788;BME280;26497;52.494;7.546;2023-09-30T11:34:13;101966.16;;;29.42;33.01
40788;BME280;26497;52.494;7.546;2023-09-30T11:36:46;101966.44;;;29.21;35.71
40788;BME280;26497;52.494;7.546;2023-09-30T11:39:22;101970.41;;;29.91;33.37
40788;BME280;26497;52.494;7.546;2023-09-30T11:41:49;101963.06;;;29.48;31.90
40788;BME280;26497;52.494;7.546;2023-09-30T11:44:19;101964.47;;;29.70;32.90
40788;BME280;26497;52.494;7.546;2023-09-30T11:46:51;101974.50;;;29.23;32.61
40788;BME280;26497;52.494;7.546;2023-09-30T11:49:28;101964.34;;;28.30;34.50
40788;BME280;26497;52.494;7.546;2023-09-30T11:51:56;101963.75;;;28.41;35.05
40788;BME280;26497;52.494;7.546;2023-09-30T11:54:32;101953.75;;;29.22;34.03
40788;BME280;26497;52.494;7.546;2023-09-30T11:57:00;101954.09;;;29.91;34.56
40788;BME280;26497;52.494;7.546;2023-09-30T11:59:30;101947.84;;;30.34;31.65
40788;BME280;26497;52.494;7.546;2023-09-30T12:01:58;101941.47;;;30.77;31.21
40788;BME280;26497;52.494;7.546;2023-09-30T12:04:25;101925.53;;;30.56;31.45
40788;BME280;26497;52.494;7.546;2023-09-30T12:06:52;101934.72;;;30.83;32.66
40788;BME280;26497;52.494;7.546;2023-09-30T12:09:19;101930.66;;;30.75;31.22
40788;BME280;26497;52.494;7.546;2023-09-30T12:11:51;101925.00;;;29.79;32.33
40788;BME280;26497;52.494;7.546;2023-09-30T12:14:19;101935.41;;;29.25;33.50
40788;BME280;26497;52.494;7.546;2023-09-30T12:16:48;101939.34;;;28.41;33.29
40788;BME280;26497;52.494;7.546;2023-09-30T12:19:16;101932.50;;;28.34;34.34
40788;BME280;26497;52.494;7.546;2023-09-30T12:21:45;101921.09;;;29.07;35.27
40788;BME280;26497;52.494;7.546;2023-09-30T12:24:14;101917.81;;;30.07;31.92
40788;BME280;26497;52.494;7.546;2023-09-30T12:26:43;101922.84;;;30.42;30.95
40788;BME280;26497;52.494;7.546;2023-09-30T12:29:13;101919.38;;;30.11;30.28
40788;BME280;26497;52.494;7.546;2023-09-30T12:31:42;101908.81;;;30.21;31.15
40788;BME280;26497;52.494;7.546;2023-09-30T12:34:12;101913.16;;;31.07;29.71
40788;BME280;26497;52.494;7.546;2023-09-30T12:36:39;101912.91;;;31.38;30.06
40788;BME280;26497;52.494;7.546;2023-09-30T12:39:07;101916.81;;;31.33;29.97
40788;BME280;26497;52.494;7.546;2023-09-30T12:41:37;101909.88;;;31.81;29.16
40788;BME280;26497;52.494;7.546;2023-09-30T12:44:05;101914.00;;;31.61;28.48
40788;BME280;26497;52.494;7.546;2023-09-30T12:46:33;101920.44;;;31.47;30.00
40788;BME280;26497;52.494;7.546;2023-09-30T12:49:03;101914.75;;;30.97;30.51
40788;BME280;26497;52.494;7.546;2023-09-30T12:51:32;101925.88;;;30.37;31.34
40788;BME280;26497;52.494;7.546;2023-09-30T12:54:00;101917.22;;;29.58;31.52
40788;BME280;26497;52.494;7.546;2023-09-30T12:56:28;101924.72;;;29.38;31.86
40788;BME280;26497;52.494;7.546;2023-09-30T12:58:55;101927.59;;;28.40;34.43
40788;BME280;26497;52.494;7.546;2023-09-30T13:01:22;101928.84;;;27.84;34.91